createdAt,value
2023-04-07T00:01:43.828Z,95569.03
2023-04-07T00:04:13.416Z,95572.13
2023-04-07T00:06:43.456Z,95569.34
2023-04-07T00:09:12.937Z,95566.59
2023-04-07T00:11:43.756Z,95566.38
2023-04-07T00:14:13.145Z,95570.50
2023-04-07T00:16:42.580Z,95573.03
2023-04-07T00:19:11.983Z,95574.13
2023-04-07T00:21:41.537Z,95567.19
2023-04-07T00:24:12.937Z,95572.50
2023-04-07T00:26:45.259Z,95571.13
2023-04-07T00:29:14.804Z,95569.75
2023-04-07T00:31:44.308Z,95572.03
2023-04-07T00:34:13.818Z,95576.16
2023-04-07T00:36:44.360Z,95576.47
2023-04-07T00:39:13.742Z,95566.03
2023-04-07T00:41:44.530Z,95567.78
2023-04-07T00:44:14.294Z,95566.91
2023-04-07T00:46:43.950Z,95571.41
2023-04-07T00:49:13.759Z,95563.78
2023-04-07T00:51:43.243Z,95562.91
2023-04-07T00:54:12.738Z,95559.69
2023-04-07T00:56:43.939Z,95553.97
2023-04-07T00:59:13.473Z,95560.69
2023-04-07T01:02:04.211Z,95551.06
2023-04-07T01:04:46.344Z,95558.34
2023-04-07T01:07:24.907Z,95557.16
2023-04-07T01:10:08.722Z,95553.59
2023-04-07T01:13:04.305Z,95553.28
2023-04-07T01:15:38.989Z,95558.16
2023-04-07T01:18:22.147Z,95551.91
2023-04-07T01:20:56.340Z,95548.44
2023-04-07T01:23:51.009Z,95535.38
2023-04-07T01:26:25.500Z,95542.09
2023-04-07T01:29:36.457Z,95540.25
2023-04-07T01:32:09.158Z,95541.66
2023-04-07T01:34:39.625Z,95539.78
2023-04-07T01:37:09.885Z,95539.44
2023-04-07T01:39:40.539Z,95536.91
2023-04-07T01:42:11.460Z,95538.88
2023-04-07T01:44:44.096Z,95534.47
2023-04-07T01:47:14.024Z,95535.31
2023-04-07T01:49:45.201Z,95531.50
2023-04-07T01:52:15.623Z,95528.16
2023-04-07T01:54:45.536Z,95530.66
2023-04-07T01:57:15.386Z,95529.97
2023-04-07T01:59:46.660Z,95530.91
2023-04-07T02:02:17.452Z,95528.81
2023-04-07T02:04:56.177Z,95521.63
2023-04-07T02:07:38.607Z,95528.69
2023-04-07T02:10:16.098Z,95526.69
2023-04-07T02:12:48.498Z,95523.22
2023-04-07T02:15:24.948Z,95524.28
2023-04-07T02:17:56.060Z,95523.22
2023-04-07T02:20:26.506Z,95524.84
2023-04-07T02:22:56.065Z,95532.97
2023-04-07T02:25:28.254Z,95528.34
2023-04-07T02:28:00.461Z,95527.91
2023-04-07T02:30:31.989Z,95529.28
2023-04-07T02:33:01.614Z,95527.44
2023-04-07T02:35:31.364Z,95526.63
2023-04-07T02:38:00.928Z,95530.44
2023-04-07T02:40:30.941Z,95527.44
2023-04-07T02:43:00.729Z,95520.72
2023-04-07T02:45:31.554Z,95512.25
2023-04-07T02:48:00.987Z,95512.16
2023-04-07T02:50:30.627Z,95510.97
2023-04-07T02:53:00.061Z,95501.69
2023-04-07T02:55:29.745Z,95499.53
2023-04-07T02:57:59.275Z,95506.44
2023-04-07T03:00:40.378Z,95503.06
2023-04-07T03:03:14.017Z,95509.44
2023-04-07T03:05:48.701Z,95500.19
2023-04-07T03:08:18.193Z,95497.38
2023-04-07T03:10:47.650Z,95494.81
2023-04-07T03:13:19.741Z,95500.59
2023-04-07T03:15:51.151Z,95494.69
2023-04-07T03:18:21.750Z,95497.34
2023-04-07T03:20:52.864Z,95490.63
2023-04-07T03:23:23.883Z,95489.81
2023-04-07T03:25:53.396Z,95493.50
2023-04-07T03:28:22.921Z,95490.84
2023-04-07T03:30:53.711Z,95490.84
2023-04-07T03:33:24.535Z,95496.97
2023-04-07T03:35:56.455Z,95494.31
2023-04-07T03:38:27.696Z,95485.75
2023-04-07T03:41:01.638Z,95484.94
2023-04-07T03:43:31.117Z,95483.31
2023-04-07T03:46:01.973Z,95479.03
2023-04-07T03:48:31.493Z,95479.03
2023-04-07T03:51:08.657Z,95476.38
2023-04-07T03:53:38.089Z,95469.47
2023-04-07T03:56:19.181Z,95468.66
2023-04-07T03:58:53.204Z,95473.16
2023-04-07T04:01:31.423Z,95471.53
2023-04-07T04:04:07.509Z,95478.47
2023-04-07T04:06:37.575Z,95465.19
2023-04-07T04:09:21.085Z,95468.66
2023-04-07T04:11:51.840Z,95467.84
2023-04-07T04:14:21.845Z,95467.84
2023-04-07T04:17:00.563Z,95468.66
2023-04-07T04:19:34.728Z,95469.69
2023-04-07T04:22:10.118Z,95470.50
2023-04-07T04:24:46.402Z,95471.88
2023-04-07T04:27:16.398Z,95463.31
2023-04-07T04:29:48.862Z,95471.19
2023-04-07T04:32:22.408Z,95464.91
2023-04-07T04:34:52.163Z,95470.94
2023-04-07T04:37:22.724Z,95467.47
2023-04-07T04:39:52.636Z,95460.16
2023-04-07T04:42:26.271Z,95467.56
2023-04-07T04:44:57.348Z,95459.22
2023-04-07T04:47:28.961Z,95465.00
2023-04-07T04:49:59.795Z,95457.25
2023-04-07T04:52:30.211Z,95453.53
2023-04-07T04:54:59.952Z,95454.34
2023-04-07T04:57:30.907Z,95451.47
2023-04-07T05:00:01.368Z,95454.13
2023-04-07T05:02:32.893Z,95463.97
2023-04-07T05:05:05.066Z,95459.91
2023-04-07T05:07:34.574Z,95460.13
2023-04-07T05:10:05.362Z,95461.97
2023-04-07T05:12:37.926Z,95456.06
2023-04-07T05:15:10.164Z,95464.03
2023-04-07T05:17:41.559Z,95456.28
2023-04-07T05:20:14.776Z,95458.13
2023-04-07T05:22:44.523Z,95458.50
2023-04-07T05:25:16.776Z,95454.00
2023-04-07T05:27:48.224Z,95446.69
2023-04-07T05:30:19.431Z,95445.88
2023-04-07T05:32:50.330Z,95444.28
2023-04-07T05:35:27.711Z,95447.88
2023-04-07T05:37:59.508Z,95448.66
2023-04-07T05:40:30.197Z,95439.66
2023-04-07T05:43:02.618Z,95442.69
2023-04-07T05:45:34.052Z,95437.13
2023-04-07T05:48:05.154Z,95442.81
2023-04-07T05:50:42.641Z,95438.44
2023-04-07T05:53:16.815Z,95440.06
2023-04-07T05:55:46.611Z,95435.31
2023-04-07T05:58:24.938Z,95439.13
2023-04-07T06:00:57.028Z,95437.28
2023-04-07T06:03:27.969Z,95439.47
2023-04-07T06:06:03.616Z,95430.47
2023-04-07T06:08:33.084Z,95416.91
2023-04-07T06:11:02.797Z,95409.53
2023-04-07T06:13:32.429Z,95421.91
2023-04-07T06:16:01.840Z,95420.66
2023-04-07T06:18:32.684Z,95422.50
2023-04-07T06:23:46.034Z,95424.13
2023-04-07T06:26:15.858Z,95417.53
2023-04-07T06:28:45.448Z,95409.31
2023-04-07T06:31:14.922Z,95415.00
2023-04-07T06:33:44.403Z,95420.63
2023-04-07T06:36:14.097Z,95416.94
2023-04-07T06:38:44.956Z,95411.38
2023-04-07T06:41:17.047Z,95411.72
2023-04-07T06:43:51.260Z,95411.03
2023-04-07T06:46:21.383Z,95413.84
2023-04-07T06:48:50.891Z,95408.63
2023-04-07T06:51:20.350Z,95408.47
2023-04-07T06:53:51.169Z,95415.78
2023-04-07T06:56:21.024Z,95408.72
2023-04-07T06:58:51.006Z,95407.44
2023-04-07T07:01:20.574Z,95412.06
2023-04-07T07:03:50.278Z,95408.94
2023-04-07T07:06:19.869Z,95410.91
2023-04-07T07:08:50.884Z,95406.72
2023-04-07T07:11:20.906Z,95404.63
2023-04-07T07:13:50.625Z,95401.25
2023-04-07T07:16:20.413Z,95404.03
2023-04-07T07:18:49.899Z,95412.94
2023-04-07T07:21:20.328Z,95406.69
2023-04-07T07:23:51.423Z,95412.91
2023-04-07T07:26:20.876Z,95416.47
2023-04-07T07:28:50.462Z,95410.44
2023-04-07T07:31:20.394Z,95413.78
2023-04-07T07:33:51.532Z,95411.53
2023-04-07T07:36:21.087Z,95406.41
2023-04-07T07:38:52.717Z,95408.47
2023-04-07T07:41:22.131Z,95416.06
2023-04-07T07:43:51.630Z,95406.84
2023-04-07T07:46:21.163Z,95416.09
2023-04-07T07:48:50.766Z,95414.63
2023-04-07T07:51:20.343Z,95409.47
2023-04-07T07:53:50.098Z,95418.72
2023-04-07T07:56:21.588Z,95406.81
2023-04-07T07:58:51.189Z,95398.50
2023-04-07T08:01:20.638Z,95401.16
2023-04-07T08:03:50.621Z,95396.53
2023-04-07T08:06:20.542Z,95405.78
2023-04-07T08:08:50.067Z,95394.75
2023-04-07T08:11:21.340Z,95393.00
2023-04-07T08:13:50.878Z,95393.44
2023-04-07T08:16:20.441Z,95397.06
2023-04-07T08:18:50.071Z,95385.97
2023-04-07T08:21:20.106Z,95393.31
2023-04-07T08:23:49.953Z,95390.16
2023-04-07T08:26:21.211Z,95390.53
2023-04-07T08:28:52.253Z,95396.25
2023-04-07T08:31:21.818Z,95400.13
2023-04-07T08:33:54.047Z,95389.25
2023-04-07T08:36:23.599Z,95393.13
2023-04-07T08:38:53.130Z,95394.56
2023-04-07T08:41:32.517Z,95390.09
2023-04-07T08:44:03.509Z,95387.72
2023-04-07T08:46:34.508Z,95382.75
2023-04-07T08:49:04.726Z,95382.78
2023-04-07T08:51:36.293Z,95385.03
2023-04-07T08:54:11.846Z,95387.47
2023-04-07T08:56:44.216Z,95379.22
2023-04-07T08:59:18.485Z,95378.16
2023-04-07T09:01:48.465Z,95382.22
2023-04-07T09:04:18.877Z,95383.84
2023-04-07T09:06:48.372Z,95381.47
2023-04-07T09:09:17.913Z,95377.19
2023-04-07T09:11:51.410Z,95381.75
2023-04-07T09:14:22.091Z,95368.13
2023-04-07T09:16:51.629Z,95368.94
2023-04-07T09:19:21.226Z,95369.78
2023-04-07T09:21:52.871Z,95375.69
2023-04-07T09:24:25.616Z,95373.56
2023-04-07T09:27:17.243Z,95371.16
2023-04-07T09:29:48.549Z,95369.56
2023-04-07T09:32:39.235Z,95373.91
2023-04-07T09:35:10.481Z,95364.22
2023-04-07T09:37:40.025Z,95369.56
2023-04-07T09:40:10.962Z,95368.19
2023-04-07T09:42:48.354Z,95371.44
2023-04-07T09:45:34.575Z,95364.78
2023-04-07T09:48:10.934Z,95370.16
2023-04-07T09:50:45.782Z,95356.41
2023-04-07T09:53:15.450Z,95357.72
2023-04-07T09:55:45.303Z,95354.78
2023-04-07T09:58:16.928Z,95355.88
2023-04-07T10:00:48.110Z,95366.38
2023-04-07T10:03:18.037Z,95358.31
2023-04-07T10:05:48.321Z,95349.38
2023-04-07T10:08:18.897Z,95361.78
2023-04-07T10:10:50.872Z,95358.81
2023-04-07T10:13:22.315Z,95354.19
2023-04-07T10:15:51.950Z,95349.06
2023-04-07T10:18:23.516Z,95349.84
2023-04-07T10:20:55.770Z,95350.31
2023-04-07T10:23:38.854Z,95345.16
2023-04-07T10:26:08.962Z,95341.59
2023-04-07T10:28:44.976Z,95340.50
2023-04-07T10:31:14.878Z,95340.16
2023-04-07T10:33:53.104Z,95340.91
2023-04-07T10:36:23.288Z,95343.03
2023-04-07T10:39:22.406Z,95340.03
2023-04-07T10:41:53.186Z,95336.97
2023-04-07T10:47:27.339Z,95340.69
2023-04-07T10:50:21.506Z,95342.56
2023-04-07T10:53:07.242Z,95328.75
2023-04-07T10:55:39.810Z,95340.09
2023-04-07T10:58:24.622Z,95347.59
2023-04-07T11:01:22.339Z,95342.31
2023-04-07T11:04:01.952Z,95345.63
2023-04-07T11:06:31.667Z,95339.69
2023-04-07T11:09:01.143Z,95343.22
2023-04-07T11:11:43.012Z,95329.66
2023-04-07T11:14:12.461Z,95332.47
2023-04-07T11:16:45.749Z,95330.19
2023-04-07T11:19:16.527Z,95321.94
2023-04-07T11:21:46.129Z,95334.06
2023-04-07T11:24:34.049Z,95326.63
2023-04-07T11:27:03.583Z,95331.22
2023-04-07T11:29:34.629Z,95324.53
2023-04-07T11:32:04.578Z,95327.47
2023-04-07T11:34:38.033Z,95322.13
2023-04-07T11:37:20.915Z,95328.63
2023-04-07T11:39:54.474Z,95321.84
2023-04-07T11:42:34.680Z,95318.97
2023-04-07T11:45:05.992Z,95322.25
2023-04-07T11:47:37.570Z,95324.59
2023-04-07T11:50:10.341Z,95320.47
2023-04-07T11:52:44.639Z,95313.25
2023-04-07T11:55:22.446Z,95319.59
2023-04-07T11:57:52.498Z,95318.72
2023-04-07T12:00:22.529Z,95313.84
2023-04-07T12:02:52.579Z,95318.75
2023-04-07T12:05:24.912Z,95317.78
2023-04-07T12:07:56.455Z,95325.94
2023-04-07T12:10:27.090Z,95319.88
2023-04-07T12:12:59.297Z,95323.63
2023-04-07T12:15:29.038Z,95312.31
2023-04-07T12:17:58.588Z,95319.09
2023-04-07T12:20:29.706Z,95313.84
2023-04-07T12:23:00.201Z,95325.41
2023-04-07T12:25:29.670Z,95324.84
2023-04-07T12:27:59.116Z,95323.56
2023-04-07T12:30:28.560Z,95332.63
2023-04-07T12:32:58.091Z,95333.81
2023-04-07T12:35:28.957Z,95329.59
2023-04-07T12:37:58.544Z,95327.22
2023-04-07T12:40:29.390Z,95326.94
2023-04-07T12:42:59.192Z,95330.16
2023-04-07T12:45:30.595Z,95331.75
2023-04-07T12:48:00.583Z,95323.84
2023-04-07T12:50:31.773Z,95332.31
2023-04-07T12:53:03.514Z,95322.84
2023-04-07T12:55:35.627Z,95323.34
2023-04-07T12:58:05.053Z,95315.19
2023-04-07T13:00:34.723Z,95325.16
2023-04-07T13:03:04.602Z,95323.25
2023-04-07T13:05:35.623Z,95323.72
2023-04-07T13:08:05.788Z,95317.47
2023-04-07T13:10:35.287Z,95319.09
2023-04-07T13:13:04.760Z,95324.13
2023-04-07T13:15:34.277Z,95319.53
2023-04-07T13:18:03.790Z,95317.81
2023-04-07T13:20:34.643Z,95319.94
2023-04-07T13:23:08.188Z,95315.13
2023-04-07T13:25:39.546Z,95316.44
2023-04-07T13:28:09.173Z,95319.16
2023-04-07T13:30:38.619Z,95318.34
2023-04-07T13:33:08.141Z,95318.34
2023-04-07T13:35:39.038Z,95318.09
2023-04-07T13:38:09.168Z,95314.41
2023-04-07T13:40:38.636Z,95311.44
2023-04-07T13:43:08.068Z,95317.06
2023-04-07T13:45:37.457Z,95313.06
2023-04-07T13:48:07.195Z,95319.75
2023-04-07T13:50:39.825Z,95314.69
2023-04-07T13:53:09.456Z,95316.25
2023-04-07T13:55:39.739Z,95317.06
2023-04-07T13:58:09.244Z,95320.31
2023-04-07T14:00:40.135Z,95311.41
2023-04-07T14:03:09.827Z,95316.28
2023-04-07T14:05:40.872Z,95307.72
2023-04-07T14:08:10.264Z,95315.75
2023-04-07T14:10:42.074Z,95322.44
2023-04-07T14:13:12.080Z,95321.63
2023-04-07T14:15:42.534Z,95321.63
2023-04-07T14:18:11.997Z,95314.56
2023-04-07T14:20:42.840Z,95318.88
2023-04-07T14:23:12.588Z,95316.16
2023-04-07T14:25:43.477Z,95321.00
2023-04-07T14:28:12.883Z,95319.84
2023-04-07T14:30:42.305Z,95325.34
2023-04-07T14:33:12.104Z,95313.31
2023-04-07T14:35:43.290Z,95317.28
2023-04-07T14:38:12.721Z,95315.66
2023-04-07T14:40:42.283Z,95320.31
2023-04-07T14:43:12.243Z,95327.09
2023-04-07T14:45:41.690Z,95323.31
2023-04-07T14:48:11.225Z,95325.22
2023-04-07T14:50:42.159Z,95318.78
2023-04-07T14:53:11.763Z,95328.78
2023-04-07T14:55:43.201Z,95322.59
2023-04-07T14:58:12.596Z,95329.06
2023-04-07T15:00:42.062Z,95329.34
2023-04-07T15:03:11.766Z,95324.72
2023-04-07T15:05:42.736Z,95324.97
2023-04-07T15:08:12.115Z,95325.78
2023-04-07T15:10:41.571Z,95322.84
2023-04-07T15:13:11.125Z,95325.00
2023-04-07T15:15:40.586Z,95330.19
2023-04-07T15:18:10.169Z,95329.13
2023-04-07T15:20:39.602Z,95331.53
2023-04-07T15:23:10.379Z,95333.41
2023-04-07T15:25:39.798Z,95336.13
2023-04-07T15:28:09.224Z,95340.19
2023-04-07T15:30:38.587Z,95337.78
2023-04-07T15:33:08.081Z,95339.13
2023-04-07T15:35:37.596Z,95337.25
2023-04-07T15:38:07.067Z,95333.75
2023-04-07T15:40:39.499Z,95340.75
2023-04-07T15:43:11.053Z,95339.69
2023-04-07T15:45:43.703Z,95340.78
2023-04-07T15:48:14.522Z,95340.78
2023-04-07T15:50:43.974Z,95342.69
2023-04-07T15:53:13.761Z,95340.31
2023-04-07T15:55:44.741Z,95339.78
2023-04-07T15:58:14.201Z,95353.78
2023-04-07T16:00:44.898Z,95347.59
2023-04-07T16:03:14.522Z,95354.06
2023-04-07T16:05:44.233Z,95353.53
2023-04-07T16:08:14.019Z,95356.78
2023-04-07T16:10:44.997Z,95360.56
2023-04-07T16:13:14.797Z,95357.59
2023-04-07T16:15:44.236Z,95359.28
2023-04-07T16:18:13.692Z,95361.72
2023-04-07T16:20:43.145Z,95367.09
2023-04-07T16:23:12.666Z,95367.91
2023-04-07T16:25:42.096Z,95362.31
2023-04-07T16:28:12.877Z,95368.78
2023-04-07T16:30:42.332Z,95371.75
2023-04-07T16:33:11.784Z,95372.81
2023-04-07T16:35:41.430Z,95379.53
2023-04-07T16:38:11.492Z,95377.13
2023-04-07T16:40:41.712Z,95377.38
2023-04-07T16:43:13.554Z,95376.59
2023-04-07T16:45:42.963Z,95377.13
2023-04-07T16:48:12.413Z,95382.75
2023-04-07T16:50:43.727Z,95381.97
2023-04-07T16:53:13.302Z,95383.03
2023-04-07T16:55:42.724Z,95387.06
2023-04-07T16:58:13.576Z,95393.25
2023-04-07T17:00:42.991Z,95392.16
2023-04-07T17:03:15.453Z,95399.69
2023-04-07T17:05:45.668Z,95396.19
2023-04-07T17:08:15.566Z,95400.75
2023-04-07T17:10:45.025Z,95402.06
2023-04-07T17:13:15.850Z,95398.31
2023-04-07T17:15:45.359Z,95408.75
2023-04-07T17:18:14.846Z,95406.91
2023-04-07T17:20:44.275Z,95403.94
2023-04-07T17:23:14.219Z,95401.22
2023-04-07T17:25:43.789Z,95408.47
2023-04-07T17:28:13.385Z,95418.13
2023-04-07T17:30:44.147Z,95416.50
2023-04-07T17:33:13.701Z,95420.78
2023-04-07T17:35:43.160Z,95425.34
2023-04-07T17:38:12.539Z,95421.56
2023-04-07T17:40:42.016Z,95418.84
2023-04-07T17:43:11.524Z,95425.81
2023-04-07T17:45:40.942Z,95429.81
2023-04-07T17:48:12.196Z,95433.03
2023-04-07T17:50:41.986Z,95437.84
2023-04-07T17:53:11.395Z,95441.84
2023-04-07T17:55:41.523Z,95438.91
2023-04-07T17:58:11.659Z,95441.84
2023-04-07T18:00:41.254Z,95444.78
2023-04-07T18:03:14.249Z,95452.28
2023-04-07T18:05:44.937Z,95455.50
2023-04-07T18:08:14.869Z,95459.50
2023-04-07T18:10:44.302Z,95469.91
2023-04-07T18:13:13.765Z,95475.75
2023-04-07T18:15:43.490Z,95474.63
2023-04-07T18:18:14.334Z,95473.19
2023-04-07T18:20:43.806Z,95479.00
2023-04-07T18:23:13.644Z,95478.69
2023-04-07T18:25:43.130Z,95486.94
2023-04-07T18:28:12.910Z,95485.28
2023-04-07T18:30:42.359Z,95487.91
2023-04-07T18:33:14.221Z,95487.06
2023-04-07T18:35:43.704Z,95488.91
2023-04-07T18:38:13.106Z,95491.03
2023-04-07T18:40:42.546Z,95499.81
2023-04-07T18:43:11.975Z,95498.69
2023-04-07T18:45:42.179Z,95500.00
2023-04-07T18:48:12.971Z,95506.94
2023-04-07T18:50:42.500Z,95521.09
2023-04-07T18:53:15.619Z,95520.78
2023-04-07T18:55:45.028Z,95517.00
2023-04-07T18:58:15.475Z,95526.34
2023-04-07T19:00:45.395Z,95523.59
2023-04-07T19:03:16.562Z,95522.22
2023-04-07T19:05:47.741Z,95530.50
2023-04-07T19:08:17.468Z,95531.81
2023-04-07T19:10:47.091Z,95537.69
2023-04-07T19:13:18.372Z,95540.06
2023-04-07T19:15:47.887Z,95539.75
2023-04-07T19:18:18.917Z,95542.97
2023-04-07T19:20:48.670Z,95543.78
2023-04-07T19:23:18.126Z,95547.78
2023-04-07T19:25:47.866Z,95550.69
2023-04-07T19:28:17.361Z,95541.06
2023-04-07T19:30:46.789Z,95547.47
2023-04-07T19:33:16.153Z,95548.75
2023-04-07T19:35:47.103Z,95549.00
2023-04-07T19:38:16.558Z,95553.25
2023-04-07T19:40:46.014Z,95560.47
2023-04-07T19:43:17.335Z,95558.28
2023-04-07T19:45:49.261Z,95558.53
2023-04-07T19:48:19.064Z,95563.59
2023-04-07T19:50:51.421Z,95562.53
2023-04-07T19:53:21.979Z,95563.59
2023-04-07T19:55:51.572Z,95566.50
2023-04-07T19:58:22.656Z,95563.75
2023-04-07T20:00:52.452Z,95567.97
2023-04-07T20:03:22.732Z,95570.91
2023-04-07T20:05:54.780Z,95566.84
2023-04-07T20:08:24.251Z,95573.50
2023-04-07T20:10:53.719Z,95571.31
2023-04-07T20:13:23.891Z,95567.50
2023-04-07T20:15:53.880Z,95568.81
2023-04-07T20:18:23.316Z,95575.72
2023-04-07T20:21:01.131Z,95575.41
2023-04-07T20:23:30.954Z,95569.47
2023-04-07T20:26:01.517Z,95574.50
2023-04-07T20:28:31.618Z,95570.69
2023-04-07T20:31:01.297Z,95567.22
2023-04-07T20:33:30.860Z,95565.59
2023-04-07T20:36:01.655Z,95575.22
2023-04-07T20:38:31.087Z,95569.56
2023-04-07T20:41:00.777Z,95586.66
2023-04-07T20:43:30.305Z,95580.50
2023-04-07T20:45:59.699Z,95581.63
2023-04-07T20:48:29.081Z,95584.56
2023-04-07T20:50:59.130Z,95584.78
2023-04-07T20:53:30.050Z,95588.53
2023-04-07T20:56:00.218Z,95589.81
2023-04-07T20:58:29.819Z,95590.63
2023-04-07T21:01:01.589Z,95585.78
2023-04-07T21:03:31.441Z,95586.84
2023-04-07T21:06:00.967Z,95592.91
2023-04-07T21:08:31.764Z,95581.66
2023-04-07T21:11:01.203Z,95584.00
2023-04-07T21:13:30.622Z,95583.44
2023-04-07T21:16:01.295Z,95581.25
2023-04-07T21:18:30.951Z,95588.34
2023-04-07T21:21:02.928Z,95586.09
2023-04-07T21:23:33.752Z,95581.97
2023-04-07T21:26:04.052Z,95577.56
2023-04-07T21:28:33.495Z,95583.06
2023-04-07T21:31:03.840Z,95579.19
2023-04-07T21:33:33.407Z,95588.59
2023-04-07T21:36:03.714Z,95587.34
2023-04-07T21:38:34.564Z,95583.69
2023-04-07T21:41:03.980Z,95584.28
2023-04-07T21:43:34.543Z,95585.47
2023-04-07T21:46:03.989Z,95584.81
2023-04-07T21:48:34.751Z,95589.94
2023-04-07T21:51:04.450Z,95592.38
2023-04-07T21:53:36.495Z,95596.94
2023-04-07T21:56:08.359Z,95589.28
2023-04-07T21:58:38.297Z,95585.59
2023-04-07T22:01:07.915Z,95591.53
2023-04-07T22:03:37.443Z,95595.00
2023-04-07T22:06:08.573Z,95588.16
2023-04-07T22:08:41.056Z,95587.34
2023-04-07T22:11:13.872Z,95591.66
2023-04-07T22:13:43.420Z,95591.28
2023-04-07T22:16:13.379Z,95596.72
2023-04-07T22:18:42.830Z,95598.31
2023-04-07T22:21:12.204Z,95599.16
2023-04-07T22:23:42.970Z,95597.25
2023-04-07T22:26:12.564Z,95602.69
2023-04-07T22:28:42.573Z,95612.06
2023-04-07T22:31:12.013Z,95603.56
2023-04-07T22:33:41.548Z,95614.31
2023-04-07T22:36:10.986Z,95614.88
2023-04-07T22:38:41.829Z,95611.69
2023-04-07T22:41:11.230Z,95616.16
2023-04-07T22:43:40.632Z,95617.28
2023-04-07T22:46:10.000Z,95620.03
2023-04-07T22:48:39.401Z,95619.88
2023-04-07T22:51:08.820Z,95616.03
2023-04-07T22:53:38.249Z,95623.88
2023-04-07T22:56:09.592Z,95624.34
2023-04-07T22:58:39.376Z,95619.69
2023-04-07T23:01:09.020Z,95618.50
2023-04-07T23:03:38.573Z,95616.06
2023-04-07T23:06:08.121Z,95629.13
2023-04-07T23:08:37.789Z,95627.94
2023-04-07T23:11:11.411Z,95628.97
2023-04-07T23:13:40.975Z,95633.47
2023-04-07T23:16:13.477Z,95640.66
2023-04-07T23:18:43.550Z,95637.16
2023-04-07T23:21:15.003Z,95640.28
2023-04-07T23:23:44.395Z,95636.19
2023-04-07T23:26:15.465Z,95641.38
2023-04-07T23:28:44.947Z,95639.59
2023-04-07T23:31:14.626Z,95638.63
2023-04-07T23:33:44.084Z,95642.53
2023-04-07T23:36:13.499Z,95640.69
2023-04-07T23:38:42.972Z,95647.88
2023-04-07T23:41:13.802Z,95644.03
2023-04-07T23:43:43.248Z,95647.66
2023-04-07T23:46:12.744Z,95646.78
2023-04-07T23:48:42.795Z,95646.56
2023-04-07T23:51:12.740Z,95651.28
2023-04-07T23:53:42.268Z,95650.91
2023-04-07T23:56:11.747Z,95652.63
2023-04-07T23:58:42.532Z,95649.13
